Rechercher aéroport 
image banner adimage banner adimage banner ad
image banner ad

KNKX - Miramar Mcas

Situé à San Diego, United States

ICAO - NKX, IATA -

Données fournies par Airmate  

Information générale

Coordonnées: N32°52'7" W117°8'35"
Élévation : 477 feet MSL.
Variation magnétique : 12° East
Voir autres Aéroports à California

Données opérationnelles

Special qualification required
Heure actuelle UTC:
Heure actuelle locale:
Météo
METAR: KNKX 292355Z 32008KT 10SM SCT150 27/14 A2988 RMK AO2 SLP111 T02720139 10278 20256 58009
TAF: TAF KNKX 2921/3021 30010KT 9999 FEW250 QNH2985INS BECMG 3000/3002 VRB05KT 9999 SCT030 QNH2984INS FM300700 VRB05KT 8000 BR BKN007 QNH2988INS BECMG 3015/3017 VRB05KT 9999 SCT015 QNH2989INS FM302030 29009KT 9999 FEW020 SCT150 QNH2989INS T18/3013Z T28/3020Z
Voir NOTAMs / SUP AIP / TFR affectant cet aéroport [VIEW]
Fréquences de communication: [VIEW]

Pistes:

Identifiant RWYQFULongueur (ft)Largeur (ft)SurfaceLDA (ft)
06R75°8001200OTHER
24L255°8001200OTHER
06L75°12000200CONC
24R255°12000200CONC

Coordonnées de l'aéroport

Adresse: San Diego United States

Vue satellite de KNKX